Time;durP1;ratioP1;P1;durP2;ratioP2;P2;SDS_P1;SDS_P2;PMS_P1;PMS_P2;Temp;Humidity;BMP_temperature;BMP_pressure;BME280_temperature;BME280_humidity;BME280_pressure;Samples;Min_cycle;Max_cycle;Signal;HPM_P1;HPM_P2
2024/03/04 00:01:30;;;;;;;40.83;27.20;;;10.90;99.90;;;;;;5053899;28;20455;-56
2024/03/04 00:03:57;;;;;;;50.37;31.70;;;10.90;99.90;;;;;;5053713;28;20576;-56
2024/03/04 00:06:25;;;;;;;45.70;30.97;;;11.00;99.90;;;;;;5054142;28;20445;-56
2024/03/04 00:08:53;;;;;;;43.70;28.37;;;11.00;99.90;;;;;;5053282;28;20788;-56
2024/03/04 00:11:20;;;;;;;40.20;28.50;;;11.00;99.90;;;;;;5053756;28;20511;-56
2024/03/04 00:13:47;;;;;;;43.83;28.30;;;11.00;99.90;;;;;;5053309;28;21018;-56
2024/03/04 00:16:14;;;;;;;41.83;30.37;;;11.00;99.90;;;;;;5053353;28;20449;-56
2024/03/04 00:18:41;;;;;;;45.60;31.43;;;11.00;99.90;;;;;;5053503;28;20472;-56
2024/03/04 00:21:08;;;;;;;45.73;30.87;;;11.00;99.90;;;;;;5053608;28;20441;-56
2024/03/04 00:23:36;;;;;;;49.67;33.00;;;11.00;99.90;;;;;;5053211;28;20462;-56
2024/03/04 00:26:06;;;;;;;56.67;34.87;;;10.90;99.90;;;;;;5053202;28;20998;-56
2024/03/04 00:28:34;;;;;;;56.97;35.30;;;10.90;99.90;;;;;;5053269;28;20430;-56
2024/03/04 00:31:01;;;;;;;51.87;33.10;;;10.90;99.90;;;;;;5053502;28;20446;-56
2024/03/04 00:33:27;;;;;;;58.23;35.20;;;10.90;99.90;;;;;;5053414;28;20465;-58
2024/03/04 00:35:54;;;;;;;58.20;37.03;;;10.90;99.90;;;;;;5053210;28;20445;-56
2024/03/04 00:38:21;;;;;;;58.97;38.00;;;10.80;99.90;;;;;;5053348;28;20445;-56
2024/03/04 00:40:50;;;;;;;53.23;36.20;;;10.80;99.90;;;;;;5053354;28;20437;-56
2024/03/04 00:43:16;;;;;;;56.97;36.50;;;10.80;99.90;;;;;;5053145;28;20481;-56
2024/03/04 00:45:44;;;;;;;57.67;37.60;;;10.80;99.90;;;;;;5053128;28;20477;-56
2024/03/04 00:48:10;;;;;;;55.90;37.60;;;10.80;99.90;;;;;;5053240;28;20456;-56
2024/03/04 00:50:37;;;;;;;68.50;38.60;;;10.80;99.90;;;;;;5052999;28;20447;-56
2024/03/04 00:53:05;;;;;;;61.87;36.97;;;10.80;99.90;;;;;;5052518;28;20471;-57
2024/03/04 00:55:33;;;;;;;55.00;35.23;;;10.80;99.90;;;;;;5052819;28;20453;-56
2024/03/04 00:58:02;;;;;;;57.60;37.50;;;10.80;99.90;;;;;;5052525;28;20458;-56
2024/03/04 01:00:28;;;;;;;53.70;35.87;;;10.80;99.90;;;;;;5053040;28;20813;-56
2024/03/04 01:02:55;;;;;;;53.17;34.90;;;10.80;99.90;;;;;;5052963;28;20464;-56
2024/03/04 01:05:22;;;;;;;48.67;35.20;;;10.70;99.90;;;;;;5052668;28;20531;-56
2024/03/04 01:07:50;;;;;;;48.63;34.47;;;10.60;99.90;;;;;;5052726;28;20931;-57
2024/03/04 01:10:18;;;;;;;51.57;34.30;;;10.60;99.90;;;;;;5053020;28;20445;-56
2024/03/04 01:12:45;;;;;;;48.10;33.73;;;10.60;99.90;;;;;;5052533;28;21044;-57
2024/03/04 01:15:13;;;;;;;46.20;31.23;;;10.60;99.90;;;;;;5053090;28;20809;-57
2024/03/04 01:17:40;;;;;;;49.70;33.40;;;10.60;99.90;;;;;;5052913;28;20499;-56
2024/03/04 01:20:10;;;;;;;50.63;33.67;;;10.60;99.90;;;;;;5052907;28;20446;-56
2024/03/04 01:22:38;;;;;;;47.17;33.00;;;10.60;99.90;;;;;;5056818;28;20452;-56
2024/03/04 01:25:05;;;;;;;52.20;34.20;;;10.60;99.90;;;;;;5056859;28;20481;-57
2024/03/04 01:27:32;;;;;;;48.17;33.13;;;10.60;99.90;;;;;;5056675;28;20451;-57
2024/03/04 01:29:59;;;;;;;49.63;32.73;;;10.60;99.90;;;;;;5057188;28;20786;-54
2024/03/04 01:32:27;;;;;;;49.43;32.50;;;10.50;99.90;;;;;;5056795;28;20437;-56
2024/03/04 01:34:55;;;;;;;50.97;34.90;;;10.50;99.90;;;;;;5056668;28;20453;-54
2024/03/04 01:37:21;;;;;;;48.23;32.50;;;10.50;99.90;;;;;;5056818;28;20792;-55
2024/03/04 01:39:48;;;;;;;47.27;32.97;;;10.50;99.90;;;;;;5057002;28;20445;-55
2024/03/04 01:42:15;;;;;;;44.97;30.57;;;10.50;99.90;;;;;;5057180;28;20453;-55
2024/03/04 01:44:42;;;;;;;43.17;28.97;;;10.40;99.90;;;;;;5057696;28;20496;-55
2024/03/04 01:47:17;;;;;;;42.47;30.13;;;10.40;99.90;;;;;;5059034;28;20452;-55
2024/03/04 01:49:46;;;;;;;40.33;28.87;;;10.40;99.90;;;;;;5058820;28;20469;-55
2024/03/04 01:52:14;;;;;;;38.73;27.63;;;10.40;99.90;;;;;;5056941;28;20473;-55
2024/03/04 01:54:44;;;;;;;38.17;26.10;;;10.40;99.90;;;;;;5056413;28;20484;-55
2024/03/04 01:57:13;;;;;;;33.30;25.57;;;10.50;99.90;;;;;;5056299;28;20946;-55
2024/03/04 01:59:41;;;;;;;34.93;23.67;;;10.50;99.90;;;;;;5056460;28;20441;-55
2024/03/04 02:02:09;;;;;;;32.80;23.93;;;10.50;99.90;;;;;;5056478;28;20449;-55
2024/03/04 02:04:37;;;;;;;36.50;26.37;;;10.50;99.90;;;;;;5056158;28;20489;-55
2024/03/04 02:07:05;;;;;;;32.17;23.80;;;10.50;99.90;;;;;;5056252;28;20499;-55
2024/03/04 02:09:34;;;;;;;25.40;21.10;;;10.60;99.90;;;;;;5056232;28;20455;-55
2024/03/04 02:12:01;;;;;;;29.73;18.80;;;10.60;99.90;;;;;;5056195;28;20450;-55
2024/03/04 02:14:28;;;;;;;25.43;19.50;;;10.60;99.90;;;;;;5056078;28;20465;-55
2024/03/04 02:16:55;;;;;;;26.27;21.10;;;10.60;99.90;;;;;;5056132;28;20464;-55
2024/03/04 02:19:22;;;;;;;28.23;21.80;;;10.60;99.90;;;;;;5055869;28;20524;-55
2024/03/04 02:21:55;;;;;;;28.70;20.97;;;10.60;99.90;;;;;;5055987;28;20841;-55
2024/03/04 02:24:23;;;;;;;24.83;18.23;;;10.60;99.90;;;;;;5055865;28;20504;-56
2024/03/04 02:26:51;;;;;;;30.13;22.13;;;10.60;99.90;;;;;;5055804;28;20441;-56
2024/03/04 02:29:18;;;;;;;25.97;20.93;;;10.50;99.90;;;;;;5055789;28;20445;-56
2024/03/04 02:31:46;;;;;;;28.60;20.53;;;10.50;99.90;;;;;;5056005;28;20450;-56
2024/03/04 02:34:15;;;;;;;26.37;20.07;;;10.50;99.90;;;;;;5055550;28;20519;-55
2024/03/04 02:36:42;;;;;;;22.93;17.80;;;10.40;99.90;;;;;;5055680;28;20448;-55
2024/03/04 02:39:10;;;;;;;25.17;16.57;;;10.30;99.90;;;;;;5055649;28;20520;-55
2024/03/04 02:41:39;;;;;;;21.30;14.30;;;10.30;99.90;;;;;;5055894;28;20469;-55
2024/03/04 02:44:07;;;;;;;21.13;15.80;;;10.30;99.90;;;;;;5055449;28;20470;-55
2024/03/04 02:46:34;;;;;;;21.30;15.60;;;10.30;99.90;;;;;;5055474;28;20481;-55
2024/03/04 02:49:02;;;;;;;21.47;15.07;;;10.30;99.90;;;;;;5055689;28;20438;-55
2024/03/04 02:51:29;;;;;;;25.43;16.03;;;10.20;99.90;;;;;;5055608;28;20457;-55
2024/03/04 02:53:57;;;;;;;20.40;16.10;;;10.20;99.90;;;;;;5055248;28;20483;-55
2024/03/04 02:56:23;;;;;;;19.97;15.70;;;10.20;99.90;;;;;;5055351;28;20856;-55
2024/03/04 02:58:52;;;;;;;22.77;18.33;;;10.30;99.90;;;;;;5055190;28;20441;-55
2024/03/04 03:01:19;;;;;;;22.63;17.47;;;10.30;99.90;;;;;;5055209;28;20541;-56
2024/03/04 03:03:46;;;;;;;23.97;17.47;;;10.30;99.90;;;;;;5055003;28;20458;-56
2024/03/04 03:06:13;;;;;;;19.60;16.90;;;10.30;99.90;;;;;;5054995;28;20477;-56
2024/03/04 03:08:38;;;;;;;20.43;17.90;;;10.30;99.90;;;;;;5054666;28;20948;-56
2024/03/04 03:11:07;;;;;;;22.73;17.83;;;10.30;99.90;;;;;;5054703;28;20448;-55
2024/03/04 03:13:33;;;;;;;25.83;19.00;;;10.20;99.90;;;;;;5054734;28;20223;-56
2024/03/04 03:16:03;;;;;;;23.20;18.30;;;10.20;99.90;;;;;;5054497;28;20951;-56
2024/03/04 03:18:30;;;;;;;21.83;18.47;;;10.20;99.90;;;;;;5054862;28;20449;-56
2024/03/04 03:20:57;;;;;;;24.50;19.37;;;10.20;99.90;;;;;;5055085;28;20446;-55
2024/03/04 03:23:24;;;;;;;21.57;18.63;;;10.20;99.90;;;;;;5054634;28;20484;-56
2024/03/04 03:25:51;;;;;;;21.87;16.53;;;10.20;99.90;;;;;;5054311;28;20571;-56
2024/03/04 03:28:18;;;;;;;19.87;15.73;;;10.20;99.90;;;;;;5054721;28;20441;-55
2024/03/04 03:30:45;;;;;;;18.97;14.83;;;10.20;99.90;;;;;;5054236;28;20450;-55
2024/03/04 03:33:13;;;;;;;22.50;14.77;;;10.20;99.90;;;;;;5054146;28;20473;-56
2024/03/04 03:35:40;;;;;;;18.00;14.30;;;10.20;99.90;;;;;;5054151;28;20809;-55
2024/03/04 03:38:07;;;;;;;16.53;13.57;;;10.20;99.90;;;;;;5054161;28;20979;-55
2024/03/04 03:40:34;;;;;;;16.67;13.00;;;10.20;99.90;;;;;;5054438;28;20448;-56
2024/03/04 03:43:01;;;;;;;21.10;14.03;;;10.30;99.90;;;;;;5054297;28;20508;-56
2024/03/04 03:45:28;;;;;;;16.77;13.23;;;10.30;99.90;;;;;;5053022;28;21133;-56
2024/03/04 03:47:55;;;;;;;19.40;15.83;;;10.40;99.90;;;;;;5054255;28;20452;-56
2024/03/04 03:50:23;;;;;;;19.23;16.30;;;10.30;99.90;;;;;;5054148;28;20442;-55
2024/03/04 03:52:49;;;;;;;17.97;15.97;;;10.30;99.90;;;;;;5054083;28;20452;-56
2024/03/04 03:55:16;;;;;;;24.53;18.03;;;10.30;99.90;;;;;;5053803;28;20464;-55
2024/03/04 03:57:43;;;;;;;21.17;18.37;;;10.30;99.90;;;;;;5054039;28;20808;-56
2024/03/04 04:00:12;;;;;;;24.73;17.80;;;10.30;99.90;;;;;;5054034;28;20791;-56
2024/03/04 04:02:42;;;;;;;27.70;17.90;;;10.40;99.90;;;;;;5054238;28;20457;-57
2024/03/04 04:05:09;;;;;;;20.30;16.40;;;10.40;99.90;;;;;;5053862;28;20441;-55
2024/03/04 04:07:37;;;;;;;21.23;16.23;;;10.40;99.90;;;;;;5053875;28;20492;-56
2024/03/04 04:10:05;;;;;;;21.87;17.37;;;10.40;99.90;;;;;;5053813;28;20477;-56
2024/03/04 04:12:32;;;;;;;21.40;17.27;;;10.40;99.90;;;;;;5053788;28;20456;-55
2024/03/04 04:14:59;;;;;;;26.67;17.57;;;10.40;99.90;;;;;;5053412;28;20508;-55
2024/03/04 04:17:25;;;;;;;23.23;16.33;;;10.30;99.90;;;;;;5053740;28;20445;-55
2024/03/04 04:19:53;;;;;;;21.23;14.87;;;10.20;99.90;;;;;;5053786;28;20448;-55
2024/03/04 04:22:20;;;;;;;19.90;15.37;;;10.20;99.90;;;;;;5053601;28;20442;-56
2024/03/04 04:24:48;;;;;;;21.73;16.10;;;10.20;99.90;;;;;;5053491;28;20827;-56
2024/03/04 04:27:15;;;;;;;15.20;13.47;;;10.20;99.90;;;;;;5053515;28;20517;-55
2024/03/04 04:29:41;;;;;;;19.60;14.47;;;10.20;99.90;;;;;;5053166;28;20931;-55
2024/03/04 04:32:08;;;;;;;19.47;14.97;;;10.20;99.90;;;;;;5053481;28;20457;-56
2024/03/04 04:34:35;;;;;;;21.57;15.90;;;10.20;99.90;;;;;;5053295;28;20458;-55
2024/03/04 04:37:02;;;;;;;23.53;16.70;;;10.20;99.90;;;;;;5053421;28;20816;-56
2024/03/04 04:39:28;;;;;;;22.23;15.83;;;10.20;99.90;;;;;;5053150;28;20532;-55
2024/03/04 04:41:57;;;;;;;21.73;15.67;;;10.20;99.90;;;;;;5053361;28;20450;-55
2024/03/04 04:44:23;;;;;;;18.40;14.37;;;10.20;99.90;;;;;;5053206;28;20468;-56
2024/03/04 04:46:50;;;;;;;23.17;15.93;;;10.20;99.90;;;;;;5053171;28;20485;-56
2024/03/04 04:49:17;;;;;;;16.60;14.57;;;10.20;99.90;;;;;;5053204;28;20448;-56
2024/03/04 04:51:44;;;;;;;20.67;14.43;;;10.10;99.90;;;;;;5053466;28;20452;-56
2024/03/04 04:54:12;;;;;;;18.73;13.80;;;10.10;99.90;;;;;;5052967;28;20850;-56
2024/03/04 04:56:38;;;;;;;26.60;15.00;;;10.20;99.90;;;;;;5053018;28;20650;-55
2024/03/04 04:59:06;;;;;;;20.27;14.00;;;10.20;99.90;;;;;;5053200;28;20449;-56
2024/03/04 05:01:33;;;;;;;20.73;14.10;;;10.20;99.90;;;;;;5052863;28;20936;-56
2024/03/04 05:04:01;;;;;;;21.30;12.90;;;10.20;99.90;;;;;;5052789;28;20979;-56
2024/03/04 05:06:28;;;;;;;14.70;11.30;;;10.30;99.90;;;;;;5052948;28;20485;-56
2024/03/04 05:08:55;;;;;;;17.00;11.50;;;10.20;99.90;;;;;;5052754;28;20898;-56
2024/03/04 05:11:22;;;;;;;11.90;10.40;;;10.20;99.90;;;;;;5053543;28;20445;-56
2024/03/04 05:13:49;;;;;;;12.37;10.33;;;10.20;99.90;;;;;;5053997;28;20466;-56
2024/03/04 05:16:17;;;;;;;10.40;9.30;;;10.20;99.90;;;;;;5053878;28;20445;-56
2024/03/04 05:18:44;;;;;;;11.50;8.40;;;10.20;99.90;;;;;;5053718;28;20450;-56
2024/03/04 05:21:11;;;;;;;12.93;7.90;;;10.10;99.90;;;;;;5052962;28;20446;-55
2024/03/04 05:23:38;;;;;;;15.00;9.57;;;10.10;99.90;;;;;;5053246;28;20472;-55
2024/03/04 05:26:05;;;;;;;12.83;7.77;;;10.00;99.90;;;;;;5053170;28;21074;-55
2024/03/04 05:28:31;;;;;;;10.53;8.10;;;10.00;99.90;;;;;;5053289;28;20537;-55
2024/03/04 05:30:58;;;;;;;18.00;8.70;;;10.00;99.90;;;;;;5052975;28;20445;-55
2024/03/04 05:33:26;;;;;;;11.40;7.63;;;9.90;99.90;;;;;;5052984;28;20552;-55
2024/03/04 05:35:53;;;;;;;11.87;6.77;;;10.00;99.90;;;;;;5053054;28;20437;-55
2024/03/04 05:38:20;;;;;;;10.57;7.57;;;10.00;99.90;;;;;;5053069;28;20826;-55
2024/03/04 05:40:47;;;;;;;8.23;7.43;;;10.10;99.90;;;;;;5053042;28;20434;-55
2024/03/04 05:43:14;;;;;;;9.60;6.60;;;10.10;99.90;;;;;;5053126;28;20464;-55
2024/03/04 05:45:41;;;;;;;10.80;6.40;;;10.10;99.90;;;;;;5052574;28;20452;-55
2024/03/04 05:48:08;;;;;;;9.40;7.23;;;10.10;99.90;;;;;;5052639;28;20935;-55
2024/03/04 05:50:37;;;;;;;10.30;6.40;;;10.10;99.90;;;;;;5052940;28;20445;-55
2024/03/04 05:53:05;;;;;;;9.83;7.27;;;10.10;99.90;;;;;;5053209;28;20841;-55
2024/03/04 05:55:31;;;;;;;10.73;6.93;;;10.10;99.90;;;;;;5052402;28;20465;-55
2024/03/04 05:57:58;;;;;;;8.97;6.53;;;10.10;99.90;;;;;;5052621;28;20442;-56
2024/03/04 06:00:25;;;;;;;9.53;7.00;;;10.00;99.90;;;;;;5052776;28;20837;-55
2024/03/04 06:02:52;;;;;;;15.50;6.70;;;10.10;99.90;;;;;;5052710;28;20442;-55
2024/03/04 06:05:19;;;;;;;9.50;7.30;;;10.10;99.90;;;;;;5053604;28;20445;-55
2024/03/04 06:07:47;;;;;;;13.20;7.17;;;10.10;99.90;;;;;;5053471;28;21030;-55
2024/03/04 06:10:15;;;;;;;8.20;6.73;;;10.20;99.90;;;;;;5056140;28;20445;-55
2024/03/04 06:12:42;;;;;;;9.10;7.13;;;10.10;99.90;;;;;;5056200;28;20485;-56
2024/03/04 06:15:09;;;;;;;10.70;6.90;;;10.10;99.90;;;;;;5056014;28;20524;-55
2024/03/04 06:17:36;;;;;;;12.40;7.10;;;10.20;99.90;;;;;;5056049;28;20453;-55
2024/03/04 06:20:09;;;;;;;10.10;7.83;;;10.20;99.90;;;;;;5055914;28;20445;-55
2024/03/04 06:22:36;;;;;;;9.07;7.57;;;10.20;99.90;;;;;;5055656;28;20536;-55
2024/03/04 06:25:05;;;;;;;9.07;7.27;;;10.20;99.90;;;;;;5055784;28;20461;-55
2024/03/04 06:27:33;;;;;;;11.27;7.20;;;10.20;99.90;;;;;;5055353;28;20478;-55
2024/03/04 06:30:00;;;;;;;12.97;8.60;;;10.20;99.90;;;;;;5055727;28;20446;-55
2024/03/04 06:32:27;;;;;;;9.47;8.17;;;10.20;99.90;;;;;;5055732;28;20537;-55
2024/03/04 06:34:54;;;;;;;8.10;7.00;;;10.20;99.90;;;;;;5055601;28;20468;-55
2024/03/04 06:37:21;;;;;;;8.50;7.27;;;10.20;99.90;;;;;;5055244;28;20974;-55
2024/03/04 06:39:48;;;;;;;12.60;6.87;;;10.20;99.90;;;;;;5055583;28;20446;-55
2024/03/04 06:42:16;;;;;;;9.60;7.10;;;10.20;99.90;;;;;;5055524;28;20442;-55
2024/03/04 06:44:43;;;;;;;9.30;6.40;;;10.30;99.90;;;;;;5055484;28;20457;-55
2024/03/04 06:47:10;;;;;;;11.00;7.13;;;10.30;99.90;;;;;;5055341;28;20670;-55
2024/03/04 06:49:38;;;;;;;7.97;7.17;;;10.30;99.90;;;;;;5055317;28;20445;-55
2024/03/04 06:52:05;;;;;;;9.60;7.13;;;10.30;99.90;;;;;;5055108;28;20532;-55
2024/03/04 06:54:31;;;;;;;10.97;7.60;;;10.30;99.90;;;;;;5054966;28;20483;-55
2024/03/04 06:56:58;;;;;;;8.47;7.10;;;10.30;99.90;;;;;;5055275;28;20448;-55
2024/03/04 06:59:26;;;;;;;10.87;7.50;;;10.30;99.90;;;;;;5054904;28;20444;-55
2024/03/04 07:01:53;;;;;;;9.00;6.43;;;10.20;99.90;;;;;;5054908;28;20905;-55
2024/03/04 07:04:20;;;;;;;14.57;7.27;;;10.20;99.90;;;;;;5055046;28;20474;-55
2024/03/04 07:06:47;;;;;;;11.70;7.50;;;10.20;99.90;;;;;;5054977;28;20485;-55
2024/03/04 07:09:14;;;;;;;12.47;8.27;;;10.20;99.90;;;;;;5055039;28;20444;-55
2024/03/04 07:11:40;;;;;;;8.63;6.90;;;10.30;99.90;;;;;;5054864;28;20441;-55
2024/03/04 07:14:07;;;;;;;8.60;6.97;;;10.30;99.90;;;;;;5054899;28;20461;-55
2024/03/04 07:16:36;;;;;;;8.97;6.40;;;10.30;99.90;;;;;;5054596;28;21038;-55
2024/03/04 07:19:03;;;;;;;7.00;6.30;;;10.40;99.90;;;;;;5054691;28;20823;-55
2024/03/04 07:21:29;;;;;;;10.33;6.90;;;10.40;99.90;;;;;;5054763;28;20471;-55
2024/03/04 07:23:56;;;;;;;6.73;6.00;;;10.50;99.90;;;;;;5054659;28;20472;-55
2024/03/04 07:26:23;;;;;;;8.13;7.30;;;10.50;99.90;;;;;;5054750;28;20480;-55
2024/03/04 07:28:50;;;;;;;10.20;7.13;;;10.60;99.90;;;;;;5054654;28;20445;-55
2024/03/04 07:31:17;;;;;;;11.07;7.63;;;10.50;99.90;;;;;;5054216;28;20536;-55
2024/03/04 07:33:46;;;;;;;8.03;7.23;;;10.50;99.90;;;;;;5054083;28;20470;-55
2024/03/04 07:36:13;;;;;;;10.17;7.73;;;10.60;99.90;;;;;;5054375;28;20944;-55
2024/03/04 07:38:40;;;;;;;8.43;7.50;;;10.60;99.90;;;;;;5054346;28;20485;-55
2024/03/04 07:41:07;;;;;;;9.17;7.33;;;10.60;99.90;;;;;;5054005;28;20951;-55
2024/03/04 07:43:34;;;;;;;8.70;6.83;;;10.60;99.90;;;;;;5054142;28;20465;-55
2024/03/04 07:46:01;;;;;;;8.07;6.40;;;10.60;99.90;;;;;;5054377;28;20450;-55
2024/03/04 07:48:28;;;;;;;7.50;6.53;;;10.60;99.90;;;;;;5053876;28;20969;-55
2024/03/04 07:50:56;;;;;;;11.27;6.83;;;10.60;99.90;;;;;;5054062;28;20453;-55
2024/03/04 07:53:23;;;;;;;8.77;6.00;;;10.60;99.90;;;;;;5053639;28;20470;-55
2024/03/04 07:55:50;;;;;;;7.23;6.07;;;10.60;99.90;;;;;;5053946;28;20422;-55
2024/03/04 07:58:16;;;;;;;7.20;6.13;;;10.60;99.90;;;;;;5053750;28;20969;-55
2024/03/04 08:00:43;;;;;;;7.70;5.43;;;10.60;99.90;;;;;;5053710;28;20817;-55
2024/03/04 08:03:10;;;;;;;11.20;7.90;;;10.60;99.90;;;;;;5053966;28;20833;-55
2024/03/04 08:05:37;;;;;;;7.63;6.83;;;10.50;99.90;;;;;;5054038;28;20446;-55
2024/03/04 08:08:05;;;;;;;8.10;6.50;;;10.50;99.90;;;;;;5053755;28;20481;-55
2024/03/04 08:10:32;;;;;;;10.17;6.73;;;10.50;99.90;;;;;;5053831;28;20524;-55
2024/03/04 08:12:59;;;;;;;6.83;6.17;;;10.60;99.90;;;;;;5053393;28;20964;-55
2024/03/04 08:15:26;;;;;;;7.47;5.97;;;10.60;99.90;;;;;;5054019;28;20449;-56
2024/03/04 08:17:53;;;;;;;6.73;5.70;;;10.60;99.90;;;;;;5053426;28;20450;-55
2024/03/04 08:20:21;;;;;;;6.30;5.57;;;10.70;99.90;;;;;;5054255;28;20472;-55
2024/03/04 08:22:48;;;;;;;6.13;5.53;;;10.70;99.90;;;;;;5053262;28;20504;-55
2024/03/04 08:25:17;;;;;;;9.50;5.43;;;10.60;99.90;;;;;;5053745;28;20525;-55
2024/03/04 08:27:44;;;;;;;8.07;5.67;;;10.70;99.90;;;;;;5053774;28;20492;-55
2024/03/04 08:30:13;;;;;;;8.17;5.67;;;10.70;99.90;;;;;;5053084;28;20446;-55
2024/03/04 08:32:42;;;;;;;8.07;5.03;;;10.90;99.90;;;;;;5054192;28;20503;-55
2024/03/04 08:35:10;;;;;;;8.03;5.00;;;10.90;99.90;;;;;;5054191;28;20456;-55
2024/03/04 08:37:37;;;;;;;4.77;4.33;;;11.10;99.90;;;;;;5053939;28;20857;-55
2024/03/04 08:40:04;;;;;;;6.13;5.57;;;11.10;99.90;;;;;;5053573;28;20477;-55
2024/03/04 08:42:32;;;;;;;6.50;5.10;;;11.10;99.90;;;;;;5053447;28;20499;-55
2024/03/04 08:44:59;;;;;;;8.07;4.97;;;11.20;99.90;;;;;;5053507;28;20462;-55
2024/03/04 08:47:26;;;;;;;6.07;5.00;;;11.20;99.90;;;;;;5053074;28;20473;-56
2024/03/04 08:49:52;;;;;;;8.20;5.50;;;11.20;99.90;;;;;;5053346;28;20528;-55
2024/03/04 08:52:19;;;;;;;5.97;5.37;;;11.20;99.90;;;;;;5053432;28;20445;-55
2024/03/04 08:54:46;;;;;;;5.97;5.10;;;11.10;99.90;;;;;;5053068;28;20482;-55
2024/03/04 08:57:13;;;;;;;8.23;6.20;;;11.20;99.90;;;;;;5053341;28;20437;-55
2024/03/04 08:59:42;;;;;;;7.77;5.00;;;11.20;99.90;;;;;;5053389;28;20442;-56
2024/03/04 09:02:10;;;;;;;6.10;5.50;;;11.20;99.90;;;;;;5053203;28;20445;-55
2024/03/04 09:04:37;;;;;;;6.23;5.63;;;11.20;99.90;;;;;;5053314;28;20473;-55
2024/03/04 09:07:04;;;;;;;7.37;6.63;;;11.30;99.90;;;;;;5053131;28;20485;-55
2024/03/04 09:09:31;;;;;;;8.27;6.70;;;11.40;99.90;;;;;;5052986;28;20442;-55
2024/03/04 09:11:59;;;;;;;8.77;6.40;;;11.50;99.90;;;;;;5052633;28;20445;-55
2024/03/04 09:14:25;;;;;;;7.53;5.67;;;11.60;99.90;;;;;;5052974;28;20465;-55
2024/03/04 09:16:54;;;;;;;8.77;6.23;;;11.70;99.90;;;;;;5053082;28;20438;-55
2024/03/04 09:19:20;;;;;;;6.13;5.53;;;11.70;99.90;;;;;;5053624;28;20455;-55
2024/03/04 09:21:47;;;;;;;5.70;5.00;;;11.70;99.90;;;;;;5053116;28;20829;-55
2024/03/04 09:24:14;;;;;;;5.30;4.80;;;11.70;99.80;;;;;;5052925;28;20469;-55
2024/03/04 09:26:45;;;;;;;7.33;6.43;;;11.60;99.90;;;;;;5053047;28;20450;-55
2024/03/04 09:29:12;;;;;;;9.33;5.53;;;11.60;99.90;;;;;;5052990;28;20509;-55
2024/03/04 09:31:40;;;;;;;6.07;5.47;;;11.70;99.90;;;;;;5052858;28;20532;-56
2024/03/04 09:34:08;;;;;;;5.70;5.10;;;11.80;99.90;;;;;;5052895;28;20476;-56
2024/03/04 09:36:35;;;;;;;5.87;5.30;;;11.90;99.90;;;;;;5053051;28;20449;-55
2024/03/04 09:39:05;;;;;;;5.13;4.43;;;11.90;99.60;;;;;;5053023;28;20447;-55
2024/03/04 09:41:35;;;;;;;5.20;3.80;;;11.90;98.80;;;;;;5052578;28;20935;-55
2024/03/04 09:44:03;;;;;;;7.60;5.20;;;11.90;99.00;;;;;;5056068;28;20465;-55
2024/03/04 09:46:32;;;;;;;5.00;4.50;;;11.80;98.90;;;;;;5056414;28;20452;-56
2024/03/04 09:49:00;;;;;;;5.23;4.70;;;11.80;98.90;;;;;;5056614;28;20481;-55
2024/03/04 09:51:30;;;;;;;6.00;4.20;;;11.70;99.20;;;;;;5056370;28;20453;-55
2024/03/04 09:53:58;;;;;;;5.03;4.17;;;11.60;99.60;;;;;;5056208;28;20477;-55
2024/03/04 09:56:26;;;;;;;6.40;4.17;;;11.50;99.80;;;;;;5056470;28;20447;-55
2024/03/04 09:58:54;;;;;;;5.23;3.70;;;11.50;99.90;;;;;;5056088;28;20452;-55
2024/03/04 10:01:22;;;;;;;5.30;4.17;;;11.50;99.90;;;;;;5056518;28;20438;-56
2024/03/04 10:03:50;;;;;;;5.47;4.10;;;11.50;99.90;;;;;;5056319;28;20465;-55
2024/03/04 10:06:17;;;;;;;6.67;4.90;;;11.60;99.90;;;;;;5056390;28;20449;-55
2024/03/04 10:08:46;;;;;;;7.40;3.87;;;11.70;99.90;;;;;;5055967;28;20473;-55
2024/03/04 10:11:12;;;;;;;4.87;4.20;;;11.80;99.90;;;;;;5056210;28;20532;-55
2024/03/04 10:13:40;;;;;;;4.93;4.13;;;11.80;99.90;;;;;;5056025;28;20474;-55
2024/03/04 10:16:09;;;;;;;5.03;4.53;;;11.80;99.80;;;;;;5056057;28;20437;-55
2024/03/04 10:18:36;;;;;;;4.80;4.20;;;11.90;99.60;;;;;;5056032;28;20492;-55
2024/03/04 10:21:03;;;;;;;4.40;3.77;;;11.80;98.90;;;;;;5056024;28;20452;-56
2024/03/04 10:23:30;;;;;;;5.40;4.00;;;11.70;98.90;;;;;;5055859;28;20465;-55
2024/03/04 10:26:08;;;;;;;3.83;3.53;;;11.80;99.40;;;;;;5055889;28;20450;-55
2024/03/04 10:28:40;;;;;;;5.10;3.77;;;11.80;99.40;;;;;;5055786;28;20485;-55
2024/03/04 10:31:10;;;;;;;4.00;3.60;;;11.80;99.00;;;;;;5055615;28;20450;-55
2024/03/04 10:33:37;;;;;;;4.23;3.83;;;11.70;98.70;;;;;;5055623;28;20466;-55
2024/03/04 10:36:16;;;;;;;9.23;4.20;;;11.70;98.60;;;;;;5055732;28;20446;-55
2024/03/04 10:38:44;;;;;;;7.63;4.13;;;11.70;98.60;;;;;;5055617;28;20440;-55
2024/03/04 10:41:16;;;;;;;6.93;4.27;;;11.70;99.00;;;;;;5055691;28;20448;-56
2024/03/04 10:43:44;;;;;;;5.97;4.70;;;11.70;99.20;;;;;;5055577;28;20462;-55
2024/03/04 10:46:11;;;;;;;4.30;3.90;;;11.70;98.80;;;;;;5055509;28;20449;-55
2024/03/04 10:48:38;;;;;;;4.60;3.47;;;11.80;98.70;;;;;;5055137;28;20477;-55
2024/03/04 10:51:06;;;;;;;3.97;3.60;;;11.80;98.50;;;;;;5055052;28;20993;-55
2024/03/04 10:53:33;;;;;;;4.70;4.30;;;11.80;98.40;;;;;;5054665;28;20480;-55
2024/03/04 10:56:04;;;;;;;5.93;3.60;;;11.80;98.60;;;;;;5055331;28;20448;-55
2024/03/04 10:58:33;;;;;;;5.23;3.50;;;11.90;98.60;;;;;;5055367;28;20418;-55
2024/03/04 11:01:03;;;;;;;4.00;3.60;;;11.90;98.60;;;;;;5054927;28;20935;-56
2024/03/04 11:03:31;;;;;;;4.00;3.70;;;12.00;98.60;;;;;;5055198;28;20466;-56
2024/03/04 11:06:00;;;;;;;4.00;3.60;;;12.10;98.40;;;;;;5055122;28;20441;-55
2024/03/04 11:08:32;;;;;;;6.23;5.63;;;12.10;98.50;;;;;;5054995;28;20477;-55
2024/03/04 11:11:03;;;;;;;2.70;2.50;;;12.20;98.50;;;;;;5055041;28;20433;-56
2024/03/04 11:13:41;;;;;;;3.47;2.80;;;12.40;98.20;;;;;;5055070;28;20508;-56
2024/03/04 11:16:12;;;;;;;3.37;3.07;;;12.50;98.00;;;;;;5054741;28;20426;-56
2024/03/04 11:18:52;;;;;;;4.63;3.30;;;12.60;97.80;;;;;;5054988;28;20438;-56
2024/03/04 11:21:20;;;;;;;4.53;3.00;;;12.70;97.00;;;;;;5054948;28;20436;-56
2024/03/04 11:23:47;;;;;;;3.80;3.13;;;12.70;96.60;;;;;;5055403;28;20469;-56
2024/03/04 11:26:15;;;;;;;3.77;2.90;;;12.60;96.80;;;;;;5054905;28;20448;-56
2024/03/04 11:28:44;;;;;;;4.17;3.53;;;12.60;97.20;;;;;;5054524;28;20489;-56
2024/03/04 11:31:11;;;;;;;3.67;3.37;;;12.70;97.50;;;;;;5055153;28;20464;-56
2024/03/04 11:33:40;;;;;;;9.57;3.87;;;12.70;96.40;;;;;;5054691;28;20462;-56
2024/03/04 11:36:08;;;;;;;5.67;3.27;;;12.70;96.10;;;;;;5054515;28;20456;-56
2024/03/04 11:38:41;;;;;;;3.70;3.40;;;12.80;96.60;;;;;;5054063;28;20449;-56
2024/03/04 11:41:08;;;;;;;3.83;3.50;;;12.80;96.80;;;;;;5054075;28;20426;-56
2024/03/04 11:43:44;;;;;;;3.70;3.27;;;12.90;96.50;;;;;;5054624;28;20473;-56
2024/03/04 11:46:12;;;;;;;5.67;3.50;;;13.00;96.50;;;;;;5055335;28;20437;-56
2024/03/04 11:48:41;;;;;;;4.50;3.73;;;13.00;96.00;;;;;;5054673;28;20494;-56
2024/03/04 11:51:08;;;;;;;3.90;3.43;;;13.00;95.10;;;;;;5054192;28;20450;-56
2024/03/04 11:53:37;;;;;;;7.50;3.90;;;13.10;95.50;;;;;;5054117;28;20813;-56
2024/03/04 11:56:04;;;;;;;4.80;3.43;;;13.10;95.20;;;;;;5054458;28;20484;-56
2024/03/04 11:58:32;;;;;;;5.43;3.70;;;13.10;95.20;;;;;;5054273;28;20442;-56
2024/03/04 12:01:01;;;;;;;3.70;3.40;;;13.10;95.30;;;;;;5054322;28;20545;-56
2024/03/04 12:03:28;;;;;;;5.40;3.40;;;13.10;94.80;;;;;;5054055;28;20574;-56
2024/03/04 12:05:55;;;;;;;4.17;3.77;;;13.10;94.90;;;;;;5053450;28;20878;-56
2024/03/04 12:08:22;;;;;;;5.03;3.97;;;13.10;95.30;;;;;;5053656;28;21015;-56
2024/03/04 12:10:51;;;;;;;4.30;3.90;;;13.10;94.70;;;;;;5054201;28;20441;-56
2024/03/04 12:13:20;;;;;;;4.87;4.40;;;13.20;94.60;;;;;;5053760;28;20473;-56
2024/03/04 12:15:47;;;;;;;5.00;4.50;;;13.30;94.60;;;;;;5053719;28;20448;-56
2024/03/04 12:18:15;;;;;;;4.13;3.47;;;13.30;94.60;;;;;;5053710;28;20441;-56
2024/03/04 12:20:43;;;;;;;4.93;4.20;;;13.30;94.60;;;;;;5053776;28;20456;-56
2024/03/04 12:23:14;;;;;;;4.57;3.77;;;13.30;94.60;;;;;;5053666;28;20465;-56
2024/03/04 12:25:41;;;;;;;6.73;3.73;;;13.40;94.80;;;;;;5053916;28;20484;-56
2024/03/04 12:28:17;;;;;;;4.03;3.60;;;13.30;94.30;;;;;;5053302;28;20576;-56
2024/03/04 12:30:44;;;;;;;5.50;3.20;;;13.30;93.80;;;;;;5054402;28;20430;-56
2024/03/04 12:33:11;;;;;;;4.57;3.93;;;13.30;94.10;;;;;;5053039;28;21001;-56
2024/03/04 12:35:40;;;;;;;4.50;4.03;;;13.30;93.90;;;;;;5053446;28;20528;-56
2024/03/04 12:38:08;;;;;;;5.73;5.17;;;13.30;93.60;;;;;;5053419;28;20442;-56
2024/03/04 12:40:34;;;;;;;5.53;4.37;;;13.20;93.70;;;;;;5053216;28;20487;-56